createdAt,value
2018-12-22T05:00:28.868Z,971.36
2018-12-22T05:01:33.323Z,971.36
2018-12-22T05:02:28.804Z,971.34
2018-12-22T05:03:28.790Z,971.41
2018-12-22T05:04:28.778Z,971.39
2018-12-22T05:05:28.780Z,971.45
2018-12-22T05:06:28.755Z,971.43
2018-12-22T05:07:28.744Z,971.46
2018-12-22T05:08:28.734Z,971.38
2018-12-22T05:09:28.722Z,971.44
2018-12-22T05:10:28.726Z,971.46
2018-12-22T05:11:28.700Z,971.50
2018-12-22T05:12:28.712Z,971.51
2018-12-22T05:13:28.677Z,971.48
2018-12-22T05:14:28.666Z,971.49
2018-12-22T05:15:28.670Z,971.51
2018-12-22T05:16:28.652Z,971.47
2018-12-22T05:17:28.636Z,971.58
2018-12-22T05:18:28.620Z,971.51
2018-12-22T05:19:28.608Z,971.54
2018-12-22T05:20:28.605Z,971.55
2018-12-22T05:21:28.586Z,971.61
2018-12-22T05:22:28.571Z,971.51
2018-12-22T05:23:28.560Z,971.58
2018-12-22T05:24:28.548Z,971.58
2018-12-22T05:25:28.556Z,971.59
2018-12-22T05:26:28.527Z,971.64
2018-12-22T05:27:28.518Z,971.54
2018-12-22T05:28:28.502Z,971.56
2018-12-22T05:29:28.497Z,971.61
2018-12-22T05:30:28.497Z,971.63
2018-12-22T05:31:28.469Z,971.72
2018-12-22T05:32:28.459Z,971.63
2018-12-22T05:33:28.446Z,971.69
2018-12-22T05:34:28.445Z,971.57
2018-12-22T05:35:28.435Z,971.62
2018-12-22T05:36:28.413Z,971.62
2018-12-22T05:37:28.401Z,971.51
2018-12-22T05:38:28.390Z,971.52
2018-12-22T05:39:28.388Z,971.54
2018-12-22T05:40:28.391Z,971.56
2018-12-22T05:41:28.362Z,971.58
2018-12-22T05:42:28.346Z,971.59
2018-12-22T05:43:28.396Z,971.56
2018-12-22T05:44:28.322Z,971.63
2018-12-22T05:45:28.323Z,971.61
2018-12-22T05:46:28.299Z,971.61
2018-12-22T05:47:28.287Z,971.58
2018-12-22T05:48:28.280Z,971.62
2018-12-22T05:49:28.266Z,971.56
2018-12-22T05:50:28.266Z,971.65
2018-12-22T05:51:28.246Z,971.66
2018-12-22T05:52:28.231Z,971.66
2018-12-22T05:53:28.220Z,971.74
2018-12-22T05:54:28.214Z,971.65
2018-12-22T05:55:28.221Z,971.60
2018-12-22T05:56:29.836Z,971.68
2018-12-22T05:57:28.175Z,971.61
2018-12-22T05:58:28.164Z,971.56
2018-12-22T05:59:28.148Z,971.61
2018-12-22T06:00:28.156Z,971.69
2018-12-22T06:01:28.125Z,971.61
2018-12-22T06:02:28.115Z,971.66
2018-12-22T06:03:28.103Z,971.60
2018-12-22T06:04:28.096Z,971.63
2018-12-22T06:05:28.092Z,971.64
2018-12-22T06:06:28.070Z,971.59
2018-12-22T06:07:28.057Z,971.60
2018-12-22T06:08:28.048Z,971.58
2018-12-22T06:09:28.039Z,971.58
2018-12-22T06:10:28.053Z,971.55
2018-12-22T06:11:28.012Z,971.53
2018-12-22T06:12:28.001Z,971.44
2018-12-22T06:13:27.990Z,971.55
2018-12-22T06:14:27.980Z,971.48
2018-12-22T06:15:27.984Z,971.37
2018-12-22T06:16:27.958Z,971.37
2018-12-22T06:17:27.947Z,971.40
2018-12-22T06:18:27.934Z,971.37
2018-12-22T06:19:27.924Z,971.42
2018-12-22T06:20:27.927Z,971.39
2018-12-22T06:21:27.902Z,971.53
2018-12-22T06:22:27.890Z,971.55
2018-12-22T06:23:27.878Z,971.57
2018-12-22T06:24:27.867Z,971.57
2018-12-22T06:25:27.873Z,971.53
2018-12-22T06:26:27.848Z,971.47
2018-12-22T06:27:27.838Z,971.53
2018-12-22T06:28:27.821Z,971.59
2018-12-22T06:29:27.812Z,971.63
2018-12-22T06:30:27.915Z,971.63
2018-12-22T06:31:27.790Z,971.63
2018-12-22T06:32:27.765Z,971.63
2018-12-22T06:33:27.768Z,971.67
2018-12-22T06:34:27.754Z,971.73
2018-12-22T06:35:27.755Z,971.74
2018-12-22T06:36:27.730Z,971.64
2018-12-22T06:37:27.727Z,971.73
2018-12-22T06:38:27.713Z,971.55
2018-12-22T06:39:27.697Z,971.66
2018-12-22T06:40:27.698Z,971.72
2018-12-22T06:41:27.676Z,971.61
2018-12-22T06:42:27.660Z,971.64
2018-12-22T06:43:27.758Z,971.68
2018-12-22T06:44:27.638Z,971.80
2018-12-22T06:45:27.654Z,971.69
2018-12-22T06:46:27.616Z,971.78
2018-12-22T06:47:27.605Z,971.91
2018-12-22T06:48:27.592Z,971.86
2018-12-22T06:49:27.583Z,971.81
2018-12-22T06:50:27.569Z,971.80
2018-12-22T06:51:27.571Z,971.86
2018-12-22T06:52:27.546Z,971.82
2018-12-22T06:53:27.537Z,971.84
2018-12-22T06:54:27.520Z,971.86
2018-12-22T06:55:27.512Z,971.83
2018-12-22T06:56:27.518Z,971.92
2018-12-22T06:57:27.494Z,971.93
2018-12-22T06:58:27.479Z,971.89
2018-12-22T06:59:27.476Z,971.90
2018-12-22T07:00:27.456Z,971.89
2018-12-22T07:01:27.497Z,971.96
2018-12-22T07:02:27.433Z,971.90
2018-12-22T07:03:27.422Z,971.94
2018-12-22T07:04:27.416Z,971.92
2018-12-22T07:05:27.415Z,971.95
2018-12-22T07:06:27.407Z,972.00
2018-12-22T07:07:27.378Z,971.99
2018-12-22T07:08:27.367Z,971.92
2018-12-22T07:09:27.355Z,971.94
2018-12-22T07:10:27.343Z,971.91
2018-12-22T07:11:27.353Z,971.85
2018-12-22T07:12:27.330Z,971.86
2018-12-22T07:13:27.314Z,971.78
2018-12-22T07:14:27.298Z,971.80
2018-12-22T07:15:27.286Z,971.85
2018-12-22T07:16:27.289Z,971.89
2018-12-22T07:17:27.261Z,971.87
2018-12-22T07:18:27.249Z,971.90
2018-12-22T07:19:27.227Z,971.77
2018-12-22T07:20:27.234Z,971.88
2018-12-22T07:21:27.232Z,971.90
2018-12-22T07:22:27.203Z,971.93
2018-12-22T07:23:27.193Z,971.96
2018-12-22T07:24:27.182Z,972.01
2018-12-22T07:25:27.163Z,971.83
2018-12-22T07:26:27.183Z,971.87
2018-12-22T07:27:27.147Z,971.80
2018-12-22T07:28:27.139Z,971.84
2018-12-22T07:29:27.128Z,971.84
2018-12-22T07:30:27.116Z,971.85
2018-12-22T07:31:27.118Z,971.76
2018-12-22T07:32:27.090Z,971.71
2018-12-22T07:33:27.079Z,971.77
2018-12-22T07:34:27.069Z,971.85
2018-12-22T07:35:27.061Z,971.82
2018-12-22T07:36:27.057Z,971.73
2018-12-22T07:37:27.035Z,971.84
2018-12-22T07:38:27.023Z,971.87
2018-12-22T07:39:27.014Z,971.75
2018-12-22T07:40:27.000Z,971.82
2018-12-22T07:41:27.006Z,971.72
2018-12-22T07:42:26.986Z,971.81
2018-12-22T07:43:26.967Z,971.88
2018-12-22T07:44:26.955Z,971.86
2018-12-22T07:45:26.945Z,971.95
2018-12-22T07:46:26.944Z,971.93
2018-12-22T07:47:26.921Z,971.95
2018-12-22T07:48:26.915Z,971.87
2018-12-22T07:49:26.898Z,971.83
2018-12-22T07:50:28.926Z,971.88
2018-12-22T07:51:26.888Z,971.92
2018-12-22T07:52:26.863Z,971.80
2018-12-22T07:53:26.853Z,971.80
2018-12-22T07:54:26.840Z,971.91
2018-12-22T07:55:26.828Z,971.93
2018-12-22T07:56:26.831Z,971.95
2018-12-22T07:57:26.804Z,971.95
2018-12-22T07:58:26.796Z,972.03
2018-12-22T07:59:26.783Z,971.91
2018-12-22T08:00:34.584Z,972.02
2018-12-22T08:01:27.776Z,972.08
2018-12-22T08:02:26.748Z,971.95
2018-12-22T08:03:26.737Z,972.03
2018-12-22T08:04:26.726Z,972.04
2018-12-22T08:05:26.720Z,972.05
2018-12-22T08:06:26.719Z,972.07
2018-12-22T08:07:26.691Z,972.09
2018-12-22T08:08:26.682Z,971.98
2018-12-22T08:09:26.670Z,972.06
2018-12-22T08:10:26.657Z,972.09
2018-12-22T08:11:26.658Z,972.13
2018-12-22T08:12:26.636Z,972.06
2018-12-22T08:13:26.623Z,972.12
2018-12-22T08:14:26.615Z,972.16
2018-12-22T08:15:26.603Z,972.14
2018-12-22T08:16:26.606Z,972.11
2018-12-22T08:17:26.578Z,972.15
2018-12-22T08:18:26.567Z,972.12
2018-12-22T08:19:26.564Z,972.17
2018-12-22T08:20:26.546Z,972.22
2018-12-22T08:21:26.548Z,972.25
2018-12-22T08:22:26.523Z,972.20
2018-12-22T08:23:26.511Z,972.23
2018-12-22T08:24:26.502Z,972.31
2018-12-22T08:25:26.490Z,972.41
2018-12-22T08:26:27.035Z,972.37
2018-12-22T08:27:26.465Z,972.36
2018-12-22T08:28:26.456Z,972.37
2018-12-22T08:29:26.642Z,972.36
2018-12-22T08:30:26.431Z,972.40
2018-12-22T08:31:26.437Z,972.42
2018-12-22T08:32:26.434Z,972.42
2018-12-22T08:33:26.401Z,972.38
2018-12-22T08:34:26.389Z,972.48
2018-12-22T08:35:26.377Z,972.49
2018-12-22T08:36:26.380Z,972.47
2018-12-22T08:37:26.356Z,972.51
2018-12-22T08:38:26.341Z,972.34
2018-12-22T08:39:26.330Z,972.45
2018-12-22T08:40:26.323Z,972.46
2018-12-22T08:41:26.316Z,972.47
2018-12-22T08:42:26.296Z,972.46
2018-12-22T08:43:26.286Z,972.48
2018-12-22T08:44:26.643Z,972.50
2018-12-22T08:45:26.270Z,972.49
2018-12-22T08:46:26.269Z,972.43
2018-12-22T08:47:26.243Z,972.55
2018-12-22T08:48:26.229Z,972.52
2018-12-22T08:49:26.225Z,972.57
2018-12-22T08:50:26.207Z,972.57
2018-12-22T08:51:26.211Z,972.54
2018-12-22T08:52:26.183Z,972.52
2018-12-22T08:53:26.192Z,972.56
2018-12-22T08:54:26.162Z,972.62
2018-12-22T08:55:26.150Z,972.51
2018-12-22T08:56:26.181Z,972.60
2018-12-22T08:57:26.127Z,972.66
2018-12-22T08:58:26.117Z,972.66
2018-12-22T08:59:26.106Z,972.62
2018-12-22T09:00:26.099Z,972.63
2018-12-22T09:01:26.088Z,972.59
2018-12-22T09:02:26.088Z,972.76
2018-12-22T09:03:26.065Z,972.75
2018-12-22T09:04:26.056Z,972.76
2018-12-22T09:05:26.041Z,972.64
2018-12-22T09:06:26.030Z,972.70
2018-12-22T09:07:26.029Z,972.75
2018-12-22T09:08:26.006Z,972.80
2018-12-22T09:09:25.995Z,972.85
2018-12-22T09:10:25.984Z,972.86
2018-12-22T09:11:25.972Z,972.82
2018-12-22T09:12:25.978Z,973.01
2018-12-22T09:13:25.953Z,972.95
2018-12-22T09:14:25.939Z,972.97
2018-12-22T09:15:25.929Z,972.96
2018-12-22T09:16:25.918Z,972.96
2018-12-22T09:17:25.918Z,973.02
2018-12-22T09:18:25.896Z,973.12
2018-12-22T09:19:25.882Z,972.98
2018-12-22T09:20:25.863Z,973.01
2018-12-22T09:21:25.858Z,973.01
2018-12-22T09:22:25.866Z,973.09
2018-12-22T09:23:25.839Z,973.16
2018-12-22T09:24:25.826Z,973.13
2018-12-22T09:25:25.816Z,973.12
2018-12-22T09:26:25.809Z,973.11
2018-12-22T09:27:25.808Z,973.21
2018-12-22T09:28:25.781Z,973.22
2018-12-22T09:29:25.771Z,973.10
2018-12-22T09:30:25.759Z,973.15
2018-12-22T09:31:25.748Z,973.27
2018-12-22T09:32:25.752Z,973.29
2018-12-22T09:33:25.726Z,973.35
2018-12-22T09:34:25.724Z,973.28
2018-12-22T09:35:25.702Z,973.30
2018-12-22T09:36:25.690Z,973.32
2018-12-22T09:37:25.708Z,973.35
2018-12-22T09:38:25.673Z,973.39
2018-12-22T09:39:25.661Z,973.39
2018-12-22T09:40:25.649Z,973.28
2018-12-22T09:41:25.643Z,973.31
2018-12-22T09:42:25.639Z,973.33
2018-12-22T09:43:25.617Z,973.26
2018-12-22T09:44:25.605Z,973.31
2018-12-22T09:45:25.593Z,973.29
2018-12-22T09:46:25.581Z,973.30
2018-12-22T09:47:25.582Z,973.38
2018-12-22T09:48:25.560Z,973.43
2018-12-22T09:49:25.548Z,973.61
2018-12-22T09:50:25.537Z,973.60
2018-12-22T09:51:25.528Z,973.53
2018-12-22T09:52:25.536Z,973.61
2018-12-22T09:53:25.506Z,973.63
2018-12-22T09:54:25.495Z,973.76
2018-12-22T09:55:25.484Z,973.65
2018-12-22T09:56:25.474Z,973.68
2018-12-22T09:57:25.481Z,973.68
2018-12-22T09:58:25.447Z,973.57
2018-12-22T09:59:25.439Z,973.56
2018-12-22T10:00:25.431Z,973.62
2018-12-22T10:01:25.417Z,973.60
2018-12-22T10:02:25.413Z,973.57
2018-12-22T10:03:25.393Z,973.62
2018-12-22T10:04:25.382Z,973.50
2018-12-22T10:05:25.371Z,973.60
2018-12-22T10:06:25.360Z,973.46
2018-12-22T10:07:25.362Z,973.60
2018-12-22T10:08:25.337Z,973.58
2018-12-22T10:09:25.326Z,973.64
2018-12-22T10:10:25.314Z,973.67
2018-12-22T10:11:25.304Z,973.69
2018-12-22T10:12:25.309Z,973.77
2018-12-22T10:13:25.290Z,973.76
2018-12-22T10:14:25.275Z,973.77
2018-12-22T10:15:25.266Z,973.73
2018-12-22T10:16:25.252Z,973.71
2018-12-22T10:17:25.256Z,973.81
2018-12-22T10:18:25.229Z,973.74
2018-12-22T10:19:25.217Z,973.73
2018-12-22T10:20:25.206Z,973.95
2018-12-22T10:21:25.195Z,973.96
2018-12-22T10:22:25.195Z,973.85
2018-12-22T10:23:25.173Z,973.90
2018-12-22T10:24:25.160Z,973.96
2018-12-22T10:25:25.153Z,973.98
2018-12-22T10:26:25.143Z,973.94
2018-12-22T10:27:25.144Z,974.05
2018-12-22T10:28:25.117Z,974.03
2018-12-22T10:29:25.104Z,974.17
2018-12-22T10:30:25.096Z,974.00
2018-12-22T10:31:25.081Z,974.06
2018-12-22T10:32:25.086Z,974.09
2018-12-22T10:33:25.064Z,974.11
2018-12-22T10:34:25.054Z,974.19
2018-12-22T10:35:25.037Z,974.13
2018-12-22T10:36:25.023Z,974.15
2018-12-22T10:37:25.054Z,974.20
2018-12-22T10:38:25.013Z,974.20
2018-12-22T10:39:24.995Z,974.07
2018-12-22T10:40:29.004Z,974.07
2018-12-22T10:41:25.069Z,974.14
2018-12-22T10:42:24.979Z,974.11
2018-12-22T10:43:24.954Z,974.07
2018-12-22T10:44:24.932Z,974.18
2018-12-22T10:45:24.939Z,974.25
2018-12-22T10:46:24.919Z,974.14
2018-12-22T10:47:24.918Z,974.16
2018-12-22T10:48:25.000Z,974.08
2018-12-22T10:49:24.886Z,974.25
2018-12-22T10:50:24.871Z,974.30
2018-12-22T10:51:24.860Z,974.26
2018-12-22T10:52:24.868Z,974.32
2018-12-22T10:53:24.840Z,974.31
2018-12-22T10:54:24.928Z,974.24
2018-12-22T10:55:24.822Z,974.33
2018-12-22T10:56:24.803Z,974.32
2018-12-22T10:57:24.839Z,974.35
2018-12-22T10:58:24.790Z,974.39
2018-12-22T10:59:24.773Z,974.46
2018-12-22T11:00:24.763Z,974.48
2018-12-22T11:01:26.578Z,974.50
2018-12-22T11:02:24.740Z,974.56
2018-12-22T11:03:24.741Z,974.62
2018-12-22T11:04:24.719Z,974.61
2018-12-22T11:05:24.718Z,974.75
2018-12-22T11:06:24.698Z,974.79
2018-12-22T11:07:24.688Z,974.84
2018-12-22T11:08:24.683Z,975.00
2018-12-22T11:09:24.662Z,974.81
2018-12-22T11:10:24.650Z,974.81
2018-12-22T11:11:24.638Z,974.87
2018-12-22T11:12:24.627Z,974.94
2018-12-22T11:13:24.632Z,974.89
2018-12-22T11:14:24.605Z,974.91
2018-12-22T11:15:24.597Z,974.88
2018-12-22T11:16:24.586Z,974.82
2018-12-22T11:17:24.587Z,974.87
2018-12-22T11:18:24.609Z,974.80
2018-12-22T11:19:24.607Z,974.98
2018-12-22T11:20:24.604Z,974.98
2018-12-22T11:21:24.529Z,975.02
2018-12-22T11:22:24.519Z,975.02
2018-12-22T11:23:24.519Z,974.93
2018-12-22T11:24:24.605Z,974.91
2018-12-22T11:25:24.485Z,974.94
2018-12-22T11:26:24.473Z,974.89
2018-12-22T11:27:24.462Z,974.94
2018-12-22T11:28:24.466Z,974.86
2018-12-22T11:29:24.444Z,975.03
2018-12-22T11:30:24.431Z,975.02
2018-12-22T11:31:24.421Z,974.92
2018-12-22T11:32:24.409Z,974.98
2018-12-22T11:33:24.409Z,975.20
2018-12-22T11:34:24.390Z,975.14
2018-12-22T11:35:24.375Z,975.11
2018-12-22T11:36:24.364Z,975.15
2018-12-22T11:37:24.353Z,975.17
2018-12-22T11:38:24.357Z,975.25
2018-12-22T11:39:24.331Z,975.03
2018-12-22T11:40:24.321Z,975.10
2018-12-22T11:41:24.307Z,975.09
2018-12-22T11:42:24.296Z,975.09
2018-12-22T11:43:24.302Z,975.06
2018-12-22T11:44:24.275Z,975.13
2018-12-22T11:45:24.263Z,975.11
2018-12-22T11:46:24.251Z,975.19
2018-12-22T11:47:24.244Z,975.16
2018-12-22T11:48:24.245Z,975.14
2018-12-22T11:49:24.223Z,975.24
2018-12-22T11:50:24.210Z,975.04
2018-12-22T11:51:24.199Z,975.09
2018-12-22T11:52:24.188Z,975.14
2018-12-22T11:53:24.189Z,975.27
2018-12-22T11:54:24.165Z,975.20
2018-12-22T11:55:24.147Z,975.20
2018-12-22T11:56:24.143Z,975.21
2018-12-22T11:57:24.132Z,975.31
2018-12-22T11:58:24.133Z,975.38
2018-12-22T11:59:24.109Z,975.24
2018-12-22T12:00:24.100Z,975.33
2018-12-22T12:01:24.087Z,975.39
2018-12-22T12:02:24.077Z,975.32
2018-12-22T12:03:24.080Z,975.31
2018-12-22T12:04:24.052Z,975.33
2018-12-22T12:05:24.042Z,975.45
2018-12-22T12:06:24.032Z,975.34
2018-12-22T12:07:24.023Z,975.43
2018-12-22T12:08:24.026Z,975.49
2018-12-22T12:09:23.996Z,975.42
2018-12-22T12:10:23.984Z,975.50
2018-12-22T12:11:23.973Z,975.53
2018-12-22T12:12:23.963Z,975.56
2018-12-22T12:13:23.968Z,975.54
2018-12-22T12:14:23.944Z,975.51
2018-12-22T12:15:23.936Z,975.56
2018-12-22T12:16:23.928Z,975.54
2018-12-22T12:17:23.912Z,975.51
2018-12-22T12:18:23.910Z,975.49
2018-12-22T12:19:23.888Z,975.61
2018-12-22T12:20:23.881Z,975.72
2018-12-22T12:21:23.867Z,975.73
2018-12-22T12:22:23.853Z,975.72
2018-12-22T12:23:23.856Z,975.69
2018-12-22T12:24:23.831Z,975.84
2018-12-22T12:25:23.819Z,975.81
2018-12-22T12:26:23.809Z,975.73
2018-12-22T12:27:23.802Z,975.80
2018-12-22T12:28:23.802Z,975.88
2018-12-22T12:29:23.778Z,975.97
2018-12-22T12:30:23.768Z,975.84
2018-12-22T12:31:23.756Z,975.90
2018-12-22T12:32:23.745Z,975.95
2018-12-22T12:33:23.747Z,975.90
2018-12-22T12:34:23.722Z,975.88
2018-12-22T12:35:23.711Z,975.86
2018-12-22T12:36:26.106Z,975.94
2018-12-22T12:37:23.725Z,975.95
2018-12-22T12:38:23.698Z,975.92
2018-12-22T12:39:23.666Z,975.90
2018-12-22T12:40:23.807Z,975.99
2018-12-22T12:41:23.643Z,976.08
2018-12-22T12:42:23.638Z,976.08
2018-12-22T12:43:23.637Z,976.21
2018-12-22T12:44:23.609Z,976.22
2018-12-22T12:45:23.601Z,976.22
2018-12-22T12:46:23.639Z,976.15
2018-12-22T12:47:23.581Z,976.33
2018-12-22T12:48:25.806Z,976.38
2018-12-22T12:49:23.558Z,976.38
2018-12-22T12:50:23.645Z,976.36
2018-12-22T12:51:23.536Z,976.38
2018-12-22T12:52:23.541Z,976.42
2018-12-22T12:53:23.537Z,976.49
2018-12-22T12:54:23.515Z,976.41
2018-12-22T12:55:23.493Z,976.47
2018-12-22T12:56:23.491Z,976.52
2018-12-22T12:57:23.519Z,976.58
2018-12-22T12:58:23.472Z,976.66
2018-12-22T12:59:25.427Z,976.62
2018-12-22T13:00:23.438Z,976.67
2018-12-22T13:01:25.437Z,976.66
2018-12-22T13:02:23.429Z,976.76
2018-12-22T13:03:23.424Z,976.73
2018-12-22T13:04:23.396Z,976.79
2018-12-22T13:05:23.381Z,976.81
2018-12-22T13:06:23.358Z,976.82
2018-12-22T13:07:23.367Z,976.84
2018-12-22T13:08:23.349Z,976.88
2018-12-22T13:09:23.364Z,976.90
2018-12-22T13:10:23.326Z,976.92
2018-12-22T13:11:23.318Z,976.99
2018-12-22T13:12:23.310Z,976.99
2018-12-22T13:13:23.303Z,976.97
2018-12-22T13:14:23.335Z,977.02
2018-12-22T13:15:23.589Z,977.03
2018-12-22T13:16:23.261Z,977.08
2018-12-22T13:17:23.248Z,977.09
2018-12-22T13:18:23.239Z,977.03
2018-12-22T13:19:23.248Z,977.18
2018-12-22T13:20:23.225Z,977.14
2018-12-22T13:21:23.205Z,977.22
2018-12-22T13:22:23.197Z,977.23
2018-12-22T13:23:23.183Z,977.23
2018-12-22T13:24:23.192Z,977.22
2018-12-22T13:25:23.169Z,977.28
2018-12-22T13:26:23.153Z,977.32
2018-12-22T13:27:23.147Z,977.28
2018-12-22T13:28:23.127Z,977.32
2018-12-22T13:29:23.155Z,977.29
2018-12-22T13:30:23.115Z,977.36
2018-12-22T13:31:23.105Z,977.51
2018-12-22T13:32:23.091Z,977.50
2018-12-22T13:33:23.342Z,977.52
2018-12-22T13:34:23.106Z,977.57
2018-12-22T13:35:23.051Z,977.59
2018-12-22T13:36:23.072Z,977.60
2018-12-22T13:37:23.034Z,977.64
2018-12-22T13:38:23.020Z,977.66
2018-12-22T13:39:23.029Z,977.71
2018-12-22T13:40:22.995Z,977.65
2018-12-22T13:41:22.988Z,977.73
2018-12-22T13:42:22.981Z,977.72
2018-12-22T13:43:22.966Z,977.78
2018-12-22T13:44:22.977Z,977.87
2018-12-22T13:45:22.954Z,977.89
2018-12-22T13:46:22.935Z,977.94
2018-12-22T13:47:22.943Z,977.93
2018-12-22T13:48:22.992Z,977.94
2018-12-22T13:49:23.123Z,977.91
2018-12-22T13:50:23.186Z,978.00
2018-12-22T13:51:23.258Z,977.92
2018-12-22T13:52:22.867Z,977.98
2018-12-22T13:53:22.866Z,978.00
2018-12-22T13:54:22.868Z,978.03
2018-12-22T13:55:22.835Z,978.05
2018-12-22T13:56:22.817Z,978.10
2018-12-22T13:57:22.813Z,978.14
2018-12-22T13:58:22.820Z,978.16
2018-12-22T13:59:22.818Z,978.15
2018-12-22T14:00:22.787Z,978.19
2018-12-22T14:01:22.761Z,978.18
2018-12-22T14:02:22.750Z,978.13
2018-12-22T14:03:22.740Z,978.21
2018-12-22T14:04:22.754Z,978.19
2018-12-22T14:05:22.722Z,978.22
2018-12-22T14:06:22.706Z,978.19
2018-12-22T14:07:22.694Z,978.21
2018-12-22T14:08:22.696Z,978.18
2018-12-22T14:09:22.695Z,978.19
2018-12-22T14:10:22.669Z,978.18
2018-12-22T14:11:22.654Z,978.23
2018-12-22T14:12:22.642Z,978.20
2018-12-22T14:13:22.631Z,978.20
2018-12-22T14:14:22.648Z,978.24
2018-12-22T14:15:22.621Z,978.25
2018-12-22T14:16:22.605Z,978.33
2018-12-22T14:17:22.582Z,978.35
2018-12-22T14:18:22.570Z,978.37
2018-12-22T14:19:22.603Z,978.34
2018-12-22T14:20:22.551Z,978.36
2018-12-22T14:21:22.542Z,978.34
2018-12-22T14:22:22.525Z,978.36
2018-12-22T14:23:22.505Z,978.35
2018-12-22T14:24:22.536Z,978.33
2018-12-22T14:25:22.496Z,978.45
2018-12-22T14:26:22.489Z,978.39
2018-12-22T14:27:22.468Z,978.43
2018-12-22T14:28:22.461Z,978.46
2018-12-22T14:29:22.450Z,978.46
2018-12-22T14:30:22.443Z,978.48
2018-12-22T14:31:22.438Z,978.49
2018-12-22T14:32:26.819Z,978.52
2018-12-22T14:33:22.407Z,978.52
2018-12-22T14:34:22.421Z,978.55
2018-12-22T14:35:22.387Z,978.57
2018-12-22T14:36:22.371Z,978.60
2018-12-22T14:37:22.360Z,978.56
2018-12-22T14:38:22.363Z,978.57
2018-12-22T14:39:22.358Z,978.56
2018-12-22T14:40:22.331Z,978.63
2018-12-22T14:41:22.315Z,978.62
2018-12-22T14:42:22.304Z,978.55
2018-12-22T14:43:22.296Z,978.56
2018-12-22T14:44:22.298Z,978.61
2018-12-22T14:45:22.279Z,978.59
2018-12-22T14:46:22.260Z,978.57
2018-12-22T14:47:22.248Z,978.60
2018-12-22T14:48:22.235Z,978.62
2018-12-22T14:49:22.225Z,978.64
2018-12-22T14:50:22.209Z,978.67
2018-12-22T14:51:22.206Z,978.72
2018-12-22T14:52:22.195Z,978.68
2018-12-22T14:53:22.199Z,978.73
2018-12-22T14:54:22.200Z,978.70
2018-12-22T14:55:22.168Z,978.76
2018-12-22T14:56:22.156Z,978.73
2018-12-22T14:57:22.134Z,978.71
2018-12-22T14:58:22.140Z,978.73
2018-12-22T14:59:22.132Z,978.72
2018-12-22T15:00:22.104Z,978.75
2018-12-22T15:01:22.102Z,978.70
2018-12-22T15:02:22.081Z,978.74
2018-12-22T15:03:22.080Z,978.73
2018-12-22T15:04:22.084Z,978.76
2018-12-22T15:05:22.054Z,978.72
2018-12-22T15:06:22.034Z,978.72
2018-12-22T15:07:22.029Z,978.73
2018-12-22T15:08:22.018Z,978.71
2018-12-22T15:09:22.050Z,978.75
2018-12-22T15:10:21.992Z,978.74
2018-12-22T15:11:21.989Z,978.80
2018-12-22T15:12:21.978Z,978.71
2018-12-22T15:13:21.963Z,978.79
2018-12-22T15:14:21.946Z,978.73
2018-12-22T15:15:21.960Z,978.76
2018-12-22T15:16:21.932Z,978.79
2018-12-22T15:17:21.925Z,978.79
2018-12-22T15:18:21.918Z,978.82
2018-12-22T15:19:21.902Z,978.85
2018-12-22T15:20:21.901Z,978.83
2018-12-22T15:21:21.868Z,978.83
2018-12-22T15:22:21.871Z,978.83
2018-12-22T15:23:21.848Z,978.90
2018-12-22T15:24:21.837Z,978.89
2018-12-22T15:25:21.899Z,978.98
2018-12-22T15:26:21.815Z,978.98
2018-12-22T15:27:21.803Z,979.04
2018-12-22T15:28:21.788Z,979.03
2018-12-22T15:29:21.789Z,979.08
2018-12-22T15:30:21.810Z,979.11
2018-12-22T15:31:21.754Z,979.11
2018-12-22T15:32:21.757Z,979.08
2018-12-22T15:33:21.744Z,979.12
2018-12-22T15:34:21.724Z,979.09
2018-12-22T15:35:21.729Z,979.16
2018-12-22T15:36:21.702Z,979.23
2018-12-22T15:37:21.700Z,979.25
2018-12-22T15:38:21.677Z,979.26
2018-12-22T15:39:21.672Z,979.32
2018-12-22T15:40:21.669Z,979.28
2018-12-22T15:41:21.646Z,979.31
2018-12-22T15:42:21.642Z,979.32
2018-12-22T15:43:21.632Z,979.30
2018-12-22T15:44:21.612Z,979.28
2018-12-22T15:45:21.621Z,979.29
2018-12-22T15:46:21.589Z,979.24
2018-12-22T15:47:21.570Z,979.22
2018-12-22T15:48:21.586Z,979.20
2018-12-22T15:49:21.552Z,979.15
2018-12-22T15:50:21.563Z,979.21
2018-12-22T15:51:21.603Z,979.10
2018-12-22T15:52:21.517Z,979.17
2018-12-22T15:53:21.498Z,979.16
2018-12-22T15:54:21.491Z,979.14
2018-12-22T15:55:21.491Z,979.18
2018-12-22T15:56:21.463Z,979.21
2018-12-22T15:57:21.455Z,979.19
2018-12-22T15:58:21.447Z,979.21
2018-12-22T15:59:21.439Z,979.21
2018-12-22T16:00:23.574Z,979.22
2018-12-22T16:01:21.412Z,979.17
2018-12-22T16:02:21.407Z,979.21
2018-12-22T16:03:21.390Z,979.23
2018-12-22T16:04:21.378Z,979.19
2018-12-22T16:05:21.378Z,979.19
2018-12-22T16:06:21.355Z,979.21
2018-12-22T16:07:21.343Z,979.21
2018-12-22T16:08:21.335Z,979.30
2018-12-22T16:09:21.325Z,979.24
2018-12-22T16:10:21.326Z,979.25
2018-12-22T16:11:21.298Z,979.25
2018-12-22T16:12:21.287Z,979.32
2018-12-22T16:13:21.276Z,979.34
2018-12-22T16:14:21.265Z,979.39
2018-12-22T16:15:21.271Z,979.38
2018-12-22T16:16:21.234Z,979.44
2018-12-22T16:17:21.230Z,979.41
2018-12-22T16:18:21.220Z,979.41
2018-12-22T16:19:21.213Z,979.40
2018-12-22T16:20:21.212Z,979.40
2018-12-22T16:21:21.223Z,979.41
2018-12-22T16:22:21.269Z,979.40
2018-12-22T16:23:23.982Z,979.34
2018-12-22T16:24:22.500Z,979.47
2018-12-22T16:25:21.871Z,979.42
2018-12-22T16:26:21.202Z,979.47
2018-12-22T16:27:21.216Z,979.47
2018-12-22T16:28:21.115Z,979.48
2018-12-22T16:29:24.241Z,979.45
2018-12-22T16:30:23.214Z,979.52
2018-12-22T16:31:21.077Z,979.54
2018-12-22T16:32:21.118Z,979.48
2018-12-22T16:33:21.070Z,979.53
2018-12-22T16:34:21.059Z,979.57
2018-12-22T16:35:21.047Z,979.52
2018-12-22T16:36:21.025Z,979.52
2018-12-22T16:37:21.019Z,979.52
2018-12-22T16:38:21.002Z,979.55
2018-12-22T16:39:20.992Z,979.61
2018-12-22T16:40:20.992Z,979.60
2018-12-22T16:41:20.969Z,979.66
2018-12-22T16:42:20.957Z,979.66
2018-12-22T16:43:20.948Z,979.66
2018-12-22T16:44:20.935Z,979.73
2018-12-22T16:45:20.941Z,979.75
2018-12-22T16:46:20.915Z,979.64
2018-12-22T16:47:20.902Z,979.67
2018-12-22T16:48:20.894Z,979.56
2018-12-22T16:49:20.882Z,979.59
2018-12-22T16:50:20.880Z,979.56
2018-12-22T16:51:20.860Z,979.63
2018-12-22T16:52:20.849Z,979.67
2018-12-22T16:53:20.840Z,979.62
2018-12-22T16:54:20.826Z,979.66
2018-12-22T16:55:20.829Z,979.61
2018-12-22T16:56:20.805Z,979.69
2018-12-22T16:57:20.797Z,979.64
2018-12-22T16:58:20.784Z,979.69
2018-12-22T16:59:20.772Z,979.72
2018-12-22T17:00:20.772Z,979.73
2018-12-22T17:01:20.751Z,979.76
2018-12-22T17:02:20.736Z,979.76
2018-12-22T17:03:20.725Z,979.83
2018-12-22T17:04:20.716Z,979.79
2018-12-22T17:05:20.722Z,979.80
2018-12-22T17:06:20.687Z,979.82
2018-12-22T17:07:20.681Z,979.82
2018-12-22T17:08:20.674Z,979.80
2018-12-22T17:09:20.660Z,979.79
2018-12-22T17:10:20.660Z,979.76
2018-12-22T17:11:20.636Z,979.84
2018-12-22T17:12:20.624Z,979.84
2018-12-22T17:13:20.615Z,979.83
2018-12-22T17:14:20.601Z,979.86
2018-12-22T17:15:22.207Z,979.85
2018-12-22T17:16:20.578Z,979.84
2018-12-22T17:17:20.567Z,979.89
2018-12-22T17:18:20.555Z,979.88
2018-12-22T17:19:20.546Z,979.97
2018-12-22T17:20:20.537Z,979.98
2018-12-22T17:21:20.534Z,979.99
2018-12-22T17:22:20.510Z,979.99
2018-12-22T17:23:20.496Z,979.97
2018-12-22T17:24:20.488Z,980.09
2018-12-22T17:25:20.477Z,980.07
2018-12-22T17:26:20.486Z,980.04
2018-12-22T17:27:20.456Z,980.01
2018-12-22T17:28:28.064Z,980.03